Air Resources Laboratory banner image
Air Resources Laboratory web site National Oceanic and Atmospheric Administration (NOAA)

nm metar


KABQ 170652Z 12011KT 10SM FEW001 SCT035 BKN049 06/M01 A3036 RMK AO2 PK WND
 09027/0559 SLP257 MTNS OBSC NE-SE T00611006 401170039=
KAEG 170655Z AUTO 13018G23KT 10SM OVC046 05/M01 A3037 RMK AO2 T00541008
 401140000=
KALM 170655Z AUTO 03003KT 10SM SCT046 05/02 A3033 RMK AO2=
KATS 170655Z AUTO 36010KT 10SM BKN032 OVC040 08/03 A3039 RMK AO2=
KCAO 170655Z AUTO 35006KT 10SM OVC090 07/01 A3041 RMK AO2 SLP277 T00720006
 401441028=
KCNM 170653Z AUTO 34007KT 10SM BKN018 OVC025 07/04 A3037 RMK AO2 SLP269
 T00720044 400940056=
KCVN 170656Z AUTO 02007KT 10SM OVC028 06/04 A3040 RMK AO2 RAE24 SLP293 P0000
 T00610044 401170022=
KCVS 170658Z AUTO 03010KT 10SM -DZ BKN028 BKN037 OVC049 06/04 A3040 RMK AO2
 DZE0558DZB04E14DZB23E33DZB56 SLP283 P0000 T00550037 401150021 $=
KDMN 170653Z AUTO 08012KT 10SM OVC035 07/02 A3030 RMK AO2 SLP240 T00720022
 400780056=
KFMN 170653Z AUTO 14006KT 10SM -RA SCT050 OVC060 05/02 A3032 RMK AO2 RAB05
 SLP251 P0002 T00500017 401671006=
KGNT 170655Z AUTO 16012KT 10SM SCT026 OVC033 01/00 A3037 RMK AO2 T00101004
 400800000=
KGUP 170653Z AUTO 07005KT 10SM FEW033 OVC060 03/01 A3030 RMK AO2 SLP244
 T00280006 400940022=
KHOB 170655Z AUTO 02011KT 2 1/2SM BR BKN004 OVC007 06/05 A3036 RMK AO2 P0002=
KLAM 170655Z AUTO 22007KT 10SM SCT050 OVC055 03/01 A3039 RMK AO2 T00250005=
KLRU 170655Z AUTO 00000KT 10SM OVC032 08/02 A3032 RMK AO2 T00770020=
KLVS 170653Z AUTO 05013G20KT 10SM FEW038 OVC050 04/M01 A3046 RMK AO2 RAB20E30
 SLP279 P0000 T00391011 400831017 $=
KONM 170655Z AUTO 33003KT 10SM OVC042 07/M01 A3037 RMK AO2 T00661008=
KROW 170651Z AUTO 01010KT 10SM OVC030 08/03 A3038 RMK AO2 SLP267 T00830033
 401060056=
KRTN 170653Z AUTO 36003KT 10SM OVC070 06/M03 A3045 RMK AO2 SLP274 T00611028
 401391056=
KSAF 170653Z AUTO 27004KT 10SM FEW038 FEW046 OVC055 04/02 A3036 RMK AO2
 RAB31E47 SLP245 P0000 T00390022 401280006=
KSKX 170656Z AUTO 12014KT 10SM BKN075 OVC110 06/M06 A3040 RMK AO2 SLP270
 T00561056 401281028 $=
KSRR 170655Z AUTO 14005KT 1 3/4SM BR OVC004 00/00 A3041 RMK AO2=
KSVC 170655Z AUTO 12008KT 10SM OVC029 06/02 A3029 RMK AO2 T00590015 400610025=
KTCC 170653Z AUTO 26003KT 10SM OVC050 08/05 A3039 RMK AO2 RAB30E49 SLP273 P0000
 T00780050 401560061=
KTCS 170653Z AUTO 01010KT 10SM OVC033 08/M01 A3033 RMK AO2 SLP241 T00781011
 400890056=